sensor_id;sensor_type;location;lat;lon;timestamp;P1;durP1;ratioP1;P2;durP2;ratioP2
4895;SDS011;2463;49.948;8.472;2022-11-20T00:01:19;115.30;;;14.60;;
4895;SDS011;2463;49.948;8.472;2022-11-20T00:03:47;112.75;;;14.77;;
4895;SDS011;2463;49.948;8.472;2022-11-20T00:06:15;117.20;;;15.25;;
4895;SDS011;2463;49.948;8.472;2022-11-20T00:08:43;114.45;;;14.70;;
4895;SDS011;2463;49.948;8.472;2022-11-20T00:11:14;116.10;;;15.38;;
4895;SDS011;2463;49.948;8.472;2022-11-20T00:13:46;115.20;;;14.20;;
4895;SDS011;2463;49.948;8.472;2022-11-20T00:16:15;113.20;;;14.40;;
4895;SDS011;2463;49.948;8.472;2022-11-20T00:18:43;116.68;;;14.25;;
4895;SDS011;2463;49.948;8.472;2022-11-20T00:21:11;112.68;;;13.75;;
4895;SDS011;2463;49.948;8.472;2022-11-20T00:23:39;120.88;;;14.80;;
4895;SDS011;2463;49.948;8.472;2022-11-20T00:26:08;114.60;;;14.52;;
4895;SDS011;2463;49.948;8.472;2022-11-20T00:28:37;115.22;;;14.35;;
4895;SDS011;2463;49.948;8.472;2022-11-20T00:31:06;112.97;;;13.60;;
4895;SDS011;2463;49.948;8.472;2022-11-20T00:33:35;115.82;;;14.20;;
4895;SDS011;2463;49.948;8.472;2022-11-20T00:36:06;111.47;;;13.18;;
4895;SDS011;2463;49.948;8.472;2022-11-20T00:38:34;111.10;;;13.70;;
4895;SDS011;2463;49.948;8.472;2022-11-20T00:41:02;116.28;;;14.40;;
4895;SDS011;2463;49.948;8.472;2022-11-20T00:43:32;114.85;;;15.50;;
4895;SDS011;2463;49.948;8.472;2022-11-20T00:46:00;117.90;;;15.00;;
4895;SDS011;2463;49.948;8.472;2022-11-20T00:48:28;115.65;;;13.25;;
4895;SDS011;2463;49.948;8.472;2022-11-20T00:50:55;113.07;;;15.02;;
4895;SDS011;2463;49.948;8.472;2022-11-20T00:53:22;118.07;;;15.20;;
4895;SDS011;2463;49.948;8.472;2022-11-20T00:56:09;115.18;;;14.80;;
4895;SDS011;2463;49.948;8.472;2022-11-20T00:58:38;115.65;;;15.13;;
4895;SDS011;2463;49.948;8.472;2022-11-20T01:01:06;111.72;;;14.65;;
4895;SDS011;2463;49.948;8.472;2022-11-20T01:03:35;115.43;;;15.18;;
4895;SDS011;2463;49.948;8.472;2022-11-20T01:06:08;115.82;;;15.10;;
4895;SDS011;2463;49.948;8.472;2022-11-20T01:08:40;117.03;;;14.10;;
4895;SDS011;2463;49.948;8.472;2022-11-20T01:11:09;114.00;;;13.85;;
4895;SDS011;2463;49.948;8.472;2022-11-20T01:13:37;119.22;;;14.95;;
4895;SDS011;2463;49.948;8.472;2022-11-20T01:16:12;112.82;;;14.38;;
4895;SDS011;2463;49.948;8.472;2022-11-20T01:18:41;111.10;;;13.13;;
4895;SDS011;2463;49.948;8.472;2022-11-20T01:21:11;114.00;;;15.43;;
4895;SDS011;2463;49.948;8.472;2022-11-20T01:23:40;115.32;;;14.15;;
4895;SDS011;2463;49.948;8.472;2022-11-20T01:26:09;113.85;;;14.70;;
4895;SDS011;2463;49.948;8.472;2022-11-20T01:28:38;115.15;;;14.23;;
4895;SDS011;2463;49.948;8.472;2022-11-20T01:33:46;112.63;;;14.85;;
4895;SDS011;2463;49.948;8.472;2022-11-20T01:36:14;116.90;;;16.58;;
4895;SDS011;2463;49.948;8.472;2022-11-20T01:38:42;115.72;;;14.98;;
4895;SDS011;2463;49.948;8.472;2022-11-20T01:41:10;112.38;;;14.40;;
4895;SDS011;2463;49.948;8.472;2022-11-20T01:43:58;113.28;;;12.95;;
4895;SDS011;2463;49.948;8.472;2022-11-20T01:46:25;113.65;;;14.90;;
4895;SDS011;2463;49.948;8.472;2022-11-20T01:51:26;113.07;;;13.95;;
4895;SDS011;2463;49.948;8.472;2022-11-20T01:54:15;118.78;;;15.63;;
4895;SDS011;2463;49.948;8.472;2022-11-20T01:56:45;116.75;;;15.70;;
4895;SDS011;2463;49.948;8.472;2022-11-20T01:59:15;117.97;;;15.80;;
4895;SDS011;2463;49.948;8.472;2022-11-20T02:01:45;114.72;;;15.05;;
4895;SDS011;2463;49.948;8.472;2022-11-20T02:04:12;119.97;;;15.80;;
4895;SDS011;2463;49.948;8.472;2022-11-20T02:06:44;117.43;;;14.52;;
4895;SDS011;2463;49.948;8.472;2022-11-20T02:09:25;118.50;;;14.50;;
4895;SDS011;2463;49.948;8.472;2022-11-20T02:11:53;113.55;;;14.70;;
4895;SDS011;2463;49.948;8.472;2022-11-20T02:14:21;120.30;;;15.88;;
4895;SDS011;2463;49.948;8.472;2022-11-20T02:16:48;121.15;;;15.35;;
4895;SDS011;2463;49.948;8.472;2022-11-20T02:19:19;116.65;;;15.40;;
4895;SDS011;2463;49.948;8.472;2022-11-20T02:24:35;120.45;;;15.63;;
4895;SDS011;2463;49.948;8.472;2022-11-20T02:27:03;116.10;;;14.25;;
4895;SDS011;2463;49.948;8.472;2022-11-20T02:29:35;117.50;;;14.52;;
4895;SDS011;2463;49.948;8.472;2022-11-20T02:34:54;116.43;;;15.75;;
4895;SDS011;2463;49.948;8.472;2022-11-20T02:37:21;119.38;;;16.60;;
4895;SDS011;2463;49.948;8.472;2022-11-20T02:39:48;120.47;;;16.10;;
4895;SDS011;2463;49.948;8.472;2022-11-20T02:42:17;116.45;;;16.63;;
4895;SDS011;2463;49.948;8.472;2022-11-20T02:44:44;117.18;;;15.10;;
4895;SDS011;2463;49.948;8.472;2022-11-20T02:47:11;116.25;;;14.73;;
4895;SDS011;2463;49.948;8.472;2022-11-20T02:49:38;115.82;;;14.75;;
4895;SDS011;2463;49.948;8.472;2022-11-20T02:52:04;122.38;;;16.48;;
4895;SDS011;2463;49.948;8.472;2022-11-20T02:54:31;115.68;;;14.45;;
4895;SDS011;2463;49.948;8.472;2022-11-20T02:56:58;116.15;;;16.50;;
4895;SDS011;2463;49.948;8.472;2022-11-20T02:59:24;120.47;;;16.83;;
4895;SDS011;2463;49.948;8.472;2022-11-20T03:01:51;120.85;;;15.70;;
4895;SDS011;2463;49.948;8.472;2022-11-20T03:04:17;116.97;;;15.60;;
4895;SDS011;2463;49.948;8.472;2022-11-20T03:06:44;118.78;;;15.30;;
4895;SDS011;2463;49.948;8.472;2022-11-20T03:09:11;117.00;;;14.82;;
4895;SDS011;2463;49.948;8.472;2022-11-20T03:11:38;119.10;;;16.38;;
4895;SDS011;2463;49.948;8.472;2022-11-20T03:14:05;120.55;;;16.50;;
4895;SDS011;2463;49.948;8.472;2022-11-20T03:16:31;120.07;;;16.55;;
4895;SDS011;2463;49.948;8.472;2022-11-20T03:18:59;121.88;;;15.15;;
4895;SDS011;2463;49.948;8.472;2022-11-20T03:21:26;118.63;;;15.35;;
4895;SDS011;2463;49.948;8.472;2022-11-20T03:23:53;117.57;;;15.80;;
4895;SDS011;2463;49.948;8.472;2022-11-20T03:26:22;118.15;;;18.20;;
4895;SDS011;2463;49.948;8.472;2022-11-20T03:28:57;117.20;;;14.85;;
4895;SDS011;2463;49.948;8.472;2022-11-20T03:31:26;118.72;;;15.82;;
4895;SDS011;2463;49.948;8.472;2022-11-20T03:33:56;116.85;;;16.05;;
4895;SDS011;2463;49.948;8.472;2022-11-20T03:36:24;122.88;;;17.17;;
4895;SDS011;2463;49.948;8.472;2022-11-20T03:38:52;121.35;;;16.45;;
4895;SDS011;2463;49.948;8.472;2022-11-20T03:41:24;111.10;;;13.63;;
4895;SDS011;2463;49.948;8.472;2022-11-20T03:44:02;120.72;;;16.08;;
4895;SDS011;2463;49.948;8.472;2022-11-20T03:46:30;121.03;;;16.80;;
4895;SDS011;2463;49.948;8.472;2022-11-20T03:48:58;121.20;;;16.42;;
4895;SDS011;2463;49.948;8.472;2022-11-20T03:51:34;119.65;;;15.38;;
4895;SDS011;2463;49.948;8.472;2022-11-20T03:54:03;121.75;;;14.93;;
4895;SDS011;2463;49.948;8.472;2022-11-20T03:56:32;115.20;;;15.13;;
4895;SDS011;2463;49.948;8.472;2022-11-20T03:59:00;122.13;;;16.90;;
4895;SDS011;2463;49.948;8.472;2022-11-20T04:01:30;116.40;;;13.52;;
4895;SDS011;2463;49.948;8.472;2022-11-20T04:03:58;123.15;;;15.50;;
4895;SDS011;2463;49.948;8.472;2022-11-20T04:06:29;120.53;;;16.65;;
4895;SDS011;2463;49.948;8.472;2022-11-20T04:08:59;125.85;;;17.20;;
4895;SDS011;2463;49.948;8.472;2022-11-20T04:11:27;121.43;;;15.77;;
4895;SDS011;2463;49.948;8.472;2022-11-20T04:13:59;124.20;;;18.00;;
4895;SDS011;2463;49.948;8.472;2022-11-20T04:16:30;118.75;;;15.15;;
4895;SDS011;2463;49.948;8.472;2022-11-20T04:18:59;122.20;;;17.50;;
4895;SDS011;2463;49.948;8.472;2022-11-20T04:21:27;124.90;;;16.80;;
4895;SDS011;2463;49.948;8.472;2022-11-20T04:23:54;118.43;;;15.57;;
4895;SDS011;2463;49.948;8.472;2022-11-20T04:26:22;120.25;;;15.98;;
4895;SDS011;2463;49.948;8.472;2022-11-20T04:28:51;121.70;;;16.23;;
4895;SDS011;2463;49.948;8.472;2022-11-20T04:31:25;124.93;;;17.42;;
4895;SDS011;2463;49.948;8.472;2022-11-20T04:33:54;125.38;;;17.58;;
4895;SDS011;2463;49.948;8.472;2022-11-20T04:36:25;120.20;;;15.70;;
4895;SDS011;2463;49.948;8.472;2022-11-20T04:38:53;133.30;;;19.08;;
4895;SDS011;2463;49.948;8.472;2022-11-20T04:41:23;122.43;;;18.55;;
4895;SDS011;2463;49.948;8.472;2022-11-20T04:43:52;123.32;;;18.25;;
4895;SDS011;2463;49.948;8.472;2022-11-20T04:46:31;127.13;;;18.42;;
4895;SDS011;2463;49.948;8.472;2022-11-20T04:49:00;120.95;;;16.35;;
4895;SDS011;2463;49.948;8.472;2022-11-20T04:51:26;122.30;;;16.80;;
4895;SDS011;2463;49.948;8.472;2022-11-20T04:53:54;119.15;;;16.55;;
4895;SDS011;2463;49.948;8.472;2022-11-20T04:56:20;125.45;;;17.27;;
4895;SDS011;2463;49.948;8.472;2022-11-20T04:58:47;119.95;;;16.15;;
4895;SDS011;2463;49.948;8.472;2022-11-20T05:01:18;127.97;;;16.25;;
4895;SDS011;2463;49.948;8.472;2022-11-20T05:03:50;122.05;;;17.00;;
4895;SDS011;2463;49.948;8.472;2022-11-20T05:06:18;124.47;;;16.13;;
4895;SDS011;2463;49.948;8.472;2022-11-20T05:08:46;123.07;;;17.42;;
4895;SDS011;2463;49.948;8.472;2022-11-20T05:11:14;121.47;;;16.30;;
4895;SDS011;2463;49.948;8.472;2022-11-20T05:13:46;122.20;;;16.40;;
4895;SDS011;2463;49.948;8.472;2022-11-20T05:16:22;122.40;;;16.20;;
4895;SDS011;2463;49.948;8.472;2022-11-20T05:18:50;127.18;;;17.00;;
4895;SDS011;2463;49.948;8.472;2022-11-20T05:21:18;117.45;;;15.40;;
4895;SDS011;2463;49.948;8.472;2022-11-20T05:23:45;127.25;;;18.23;;
4895;SDS011;2463;49.948;8.472;2022-11-20T05:26:22;123.97;;;15.60;;
4895;SDS011;2463;49.948;8.472;2022-11-20T05:28:49;123.95;;;17.60;;
4895;SDS011;2463;49.948;8.472;2022-11-20T05:31:18;125.30;;;17.20;;
4895;SDS011;2463;49.948;8.472;2022-11-20T05:33:52;121.88;;;16.83;;
4895;SDS011;2463;49.948;8.472;2022-11-20T05:36:19;126.53;;;17.25;;
4895;SDS011;2463;49.948;8.472;2022-11-20T05:38:46;124.95;;;18.15;;
4895;SDS011;2463;49.948;8.472;2022-11-20T05:41:17;127.22;;;17.50;;
4895;SDS011;2463;49.948;8.472;2022-11-20T05:43:45;127.85;;;18.50;;
4895;SDS011;2463;49.948;8.472;2022-11-20T05:46:13;124.63;;;17.88;;
4895;SDS011;2463;49.948;8.472;2022-11-20T05:48:41;119.82;;;14.98;;
4895;SDS011;2463;49.948;8.472;2022-11-20T05:51:10;116.95;;;16.60;;
4895;SDS011;2463;49.948;8.472;2022-11-20T05:53:38;124.00;;;17.05;;
4895;SDS011;2463;49.948;8.472;2022-11-20T05:56:14;129.70;;;17.90;;
4895;SDS011;2463;49.948;8.472;2022-11-20T05:58:42;129.52;;;19.73;;
4895;SDS011;2463;49.948;8.472;2022-11-20T06:01:17;120.32;;;15.93;;
4895;SDS011;2463;49.948;8.472;2022-11-20T06:03:49;127.85;;;17.30;;
4895;SDS011;2463;49.948;8.472;2022-11-20T06:06:17;118.72;;;15.23;;
4895;SDS011;2463;49.948;8.472;2022-11-20T06:08:44;121.32;;;16.55;;
4895;SDS011;2463;49.948;8.472;2022-11-20T06:11:12;119.90;;;15.45;;
4895;SDS011;2463;49.948;8.472;2022-11-20T06:13:40;117.07;;;16.23;;
4895;SDS011;2463;49.948;8.472;2022-11-20T06:16:08;122.88;;;17.40;;
4895;SDS011;2463;49.948;8.472;2022-11-20T06:18:36;119.85;;;15.05;;
4895;SDS011;2463;49.948;8.472;2022-11-20T06:21:37;121.93;;;16.98;;
4895;SDS011;2463;49.948;8.472;2022-11-20T06:23:57;121.88;;;15.95;;
4895;SDS011;2463;49.948;8.472;2022-11-20T06:26:24;119.40;;;15.68;;
4895;SDS011;2463;49.948;8.472;2022-11-20T06:28:53;125.28;;;16.40;;
4895;SDS011;2463;49.948;8.472;2022-11-20T06:31:23;126.40;;;15.80;;
4895;SDS011;2463;49.948;8.472;2022-11-20T06:33:51;127.35;;;16.88;;
4895;SDS011;2463;49.948;8.472;2022-11-20T06:36:19;120.32;;;16.40;;
4895;SDS011;2463;49.948;8.472;2022-11-20T06:38:47;125.30;;;16.83;;
4895;SDS011;2463;49.948;8.472;2022-11-20T06:41:15;121.63;;;16.73;;
4895;SDS011;2463;49.948;8.472;2022-11-20T06:43:44;121.78;;;16.50;;
4895;SDS011;2463;49.948;8.472;2022-11-20T06:46:11;125.75;;;15.00;;
4895;SDS011;2463;49.948;8.472;2022-11-20T06:48:39;130.13;;;17.00;;
4895;SDS011;2463;49.948;8.472;2022-11-20T06:51:06;121.53;;;15.75;;
4895;SDS011;2463;49.948;8.472;2022-11-20T06:53:34;119.28;;;15.70;;
4895;SDS011;2463;49.948;8.472;2022-11-20T06:56:01;121.05;;;15.20;;
4895;SDS011;2463;49.948;8.472;2022-11-20T06:58:29;118.95;;;15.15;;
4895;SDS011;2463;49.948;8.472;2022-11-20T07:00:58;118.38;;;15.85;;
4895;SDS011;2463;49.948;8.472;2022-11-20T07:03:35;123.95;;;17.60;;
4895;SDS011;2463;49.948;8.472;2022-11-20T07:06:03;131.30;;;17.20;;
4895;SDS011;2463;49.948;8.472;2022-11-20T07:08:31;120.95;;;15.65;;
4895;SDS011;2463;49.948;8.472;2022-11-20T07:10:59;121.13;;;17.00;;
4895;SDS011;2463;49.948;8.472;2022-11-20T07:13:28;127.13;;;16.58;;
4895;SDS011;2463;49.948;8.472;2022-11-20T07:15:58;121.07;;;15.98;;
4895;SDS011;2463;49.948;8.472;2022-11-20T07:18:30;122.40;;;16.85;;
4895;SDS011;2463;49.948;8.472;2022-11-20T07:21:03;119.30;;;16.52;;
4895;SDS011;2463;49.948;8.472;2022-11-20T07:23:32;127.00;;;17.10;;
4895;SDS011;2463;49.948;8.472;2022-11-20T07:26:02;129.45;;;17.00;;
4895;SDS011;2463;49.948;8.472;2022-11-20T07:28:33;121.03;;;14.45;;
4895;SDS011;2463;49.948;8.472;2022-11-20T07:31:00;119.13;;;15.48;;
4895;SDS011;2463;49.948;8.472;2022-11-20T07:33:27;126.10;;;15.95;;
4895;SDS011;2463;49.948;8.472;2022-11-20T07:35:54;125.80;;;15.52;;
4895;SDS011;2463;49.948;8.472;2022-11-20T07:38:20;127.60;;;16.05;;
4895;SDS011;2463;49.948;8.472;2022-11-20T07:40:47;125.25;;;16.13;;
4895;SDS011;2463;49.948;8.472;2022-11-20T07:43:15;121.60;;;17.90;;
4895;SDS011;2463;49.948;8.472;2022-11-20T07:45:41;124.53;;;15.65;;
4895;SDS011;2463;49.948;8.472;2022-11-20T07:48:08;120.20;;;17.27;;
4895;SDS011;2463;49.948;8.472;2022-11-20T07:50:35;119.85;;;15.43;;
4895;SDS011;2463;49.948;8.472;2022-11-20T07:53:02;123.03;;;15.60;;
4895;SDS011;2463;49.948;8.472;2022-11-20T07:55:30;119.30;;;15.80;;
4895;SDS011;2463;49.948;8.472;2022-11-20T07:57:57;125.32;;;16.50;;
4895;SDS011;2463;49.948;8.472;2022-11-20T08:00:25;123.07;;;16.33;;
4895;SDS011;2463;49.948;8.472;2022-11-20T08:02:52;122.63;;;15.77;;
4895;SDS011;2463;49.948;8.472;2022-11-20T08:05:19;120.25;;;15.30;;
4895;SDS011;2463;49.948;8.472;2022-11-20T08:07:46;121.13;;;17.30;;
4895;SDS011;2463;49.948;8.472;2022-11-20T08:10:13;125.75;;;16.67;;
4895;SDS011;2463;49.948;8.472;2022-11-20T08:12:48;125.45;;;15.85;;
4895;SDS011;2463;49.948;8.472;2022-11-20T08:15:35;120.53;;;15.63;;
4895;SDS011;2463;49.948;8.472;2022-11-20T08:18:03;113.78;;;13.85;;
4895;SDS011;2463;49.948;8.472;2022-11-20T08:20:50;117.50;;;15.10;;
4895;SDS011;2463;49.948;8.472;2022-11-20T08:23:17;118.05;;;14.02;;
4895;SDS011;2463;49.948;8.472;2022-11-20T08:25:48;117.90;;;14.63;;
4895;SDS011;2463;49.948;8.472;2022-11-20T08:28:16;115.60;;;13.85;;
4895;SDS011;2463;49.948;8.472;2022-11-20T08:30:47;119.57;;;15.90;;
4895;SDS011;2463;49.948;8.472;2022-11-20T08:33:14;119.80;;;15.77;;
4895;SDS011;2463;49.948;8.472;2022-11-20T08:35:40;123.13;;;18.48;;
4895;SDS011;2463;49.948;8.472;2022-11-20T08:38:08;116.05;;;16.85;;
4895;SDS011;2463;49.948;8.472;2022-11-20T08:40:35;116.50;;;14.70;;
4895;SDS011;2463;49.948;8.472;2022-11-20T08:43:02;113.80;;;14.43;;
4895;SDS011;2463;49.948;8.472;2022-11-20T08:45:29;116.40;;;13.60;;
4895;SDS011;2463;49.948;8.472;2022-11-20T08:48:00;118.38;;;14.75;;
4895;SDS011;2463;49.948;8.472;2022-11-20T08:50:30;113.90;;;13.95;;
4895;SDS011;2463;49.948;8.472;2022-11-20T08:53:03;114.77;;;13.97;;
4895;SDS011;2463;49.948;8.472;2022-11-20T08:55:31;115.10;;;15.45;;
4895;SDS011;2463;49.948;8.472;2022-11-20T08:57:58;113.85;;;14.35;;
4895;SDS011;2463;49.948;8.472;2022-11-20T09:00:28;113.30;;;14.15;;
4895;SDS011;2463;49.948;8.472;2022-11-20T09:02:55;119.20;;;15.80;;
4895;SDS011;2463;49.948;8.472;2022-11-20T09:05:22;111.32;;;14.20;;
4895;SDS011;2463;49.948;8.472;2022-11-20T09:07:48;112.90;;;14.50;;
4895;SDS011;2463;49.948;8.472;2022-11-20T09:10:15;114.22;;;14.50;;
4895;SDS011;2463;49.948;8.472;2022-11-20T09:12:51;118.78;;;15.57;;
4895;SDS011;2463;49.948;8.472;2022-11-20T09:15:18;120.75;;;17.90;;
4895;SDS011;2463;49.948;8.472;2022-11-20T09:17:58;116.10;;;15.68;;
4895;SDS011;2463;49.948;8.472;2022-11-20T09:20:27;117.78;;;15.63;;
4895;SDS011;2463;49.948;8.472;2022-11-20T09:22:55;115.25;;;15.85;;
4895;SDS011;2463;49.948;8.472;2022-11-20T09:25:22;118.72;;;16.48;;
4895;SDS011;2463;49.948;8.472;2022-11-20T09:27:59;115.35;;;15.88;;
4895;SDS011;2463;49.948;8.472;2022-11-20T09:30:26;121.97;;;17.40;;
4895;SDS011;2463;49.948;8.472;2022-11-20T09:32:53;118.22;;;16.65;;
4895;SDS011;2463;49.948;8.472;2022-11-20T09:35:20;119.95;;;17.08;;
4895;SDS011;2463;49.948;8.472;2022-11-20T09:37:47;122.53;;;16.55;;
4895;SDS011;2463;49.948;8.472;2022-11-20T09:40:26;119.97;;;16.35;;
4895;SDS011;2463;49.948;8.472;2022-11-20T09:50:58;118.47;;;18.17;;
4895;SDS011;2463;49.948;8.472;2022-11-20T09:56:33;121.60;;;18.70;;
4895;SDS011;2463;49.948;8.472;2022-11-20T09:59:03;120.35;;;16.88;;
4895;SDS011;2463;49.948;8.472;2022-11-20T10:01:34;121.50;;;16.95;;
4895;SDS011;2463;49.948;8.472;2022-11-20T10:06:31;124.80;;;18.45;;
4895;SDS011;2463;49.948;8.472;2022-11-20T10:09:19;123.95;;;17.15;;
4895;SDS011;2463;49.948;8.472;2022-11-20T10:14:40;121.32;;;16.60;;
4895;SDS011;2463;49.948;8.472;2022-11-20T10:17:26;121.95;;;16.92;;
4895;SDS011;2463;49.948;8.472;2022-11-20T10:25:19;120.07;;;17.92;;
4895;SDS011;2463;49.948;8.472;2022-11-20T10:28:16;123.50;;;16.85;;
4895;SDS011;2463;49.948;8.472;2022-11-20T10:30:45;126.32;;;19.90;;
4895;SDS011;2463;49.948;8.472;2022-11-20T10:33:17;118.30;;;16.83;;
4895;SDS011;2463;49.948;8.472;2022-11-20T10:38:43;122.45;;;16.52;;
4895;SDS011;2463;49.948;8.472;2022-11-20T10:41:27;122.20;;;17.23;;
4895;SDS011;2463;49.948;8.472;2022-11-20T10:44:09;124.65;;;17.65;;
4895;SDS011;2463;49.948;8.472;2022-11-20T10:46:43;120.20;;;17.23;;
4895;SDS011;2463;49.948;8.472;2022-11-20T10:49:11;124.55;;;18.42;;
4895;SDS011;2463;49.948;8.472;2022-11-20T10:57:01;124.25;;;16.70;;
4895;SDS011;2463;49.948;8.472;2022-11-20T11:02:39;120.97;;;16.85;;
4895;SDS011;2463;49.948;8.472;2022-11-20T11:07:48;122.75;;;18.95;;
4895;SDS011;2463;49.948;8.472;2022-11-20T11:15:51;120.65;;;17.15;;
4895;SDS011;2463;49.948;8.472;2022-11-20T11:20:53;117.82;;;15.07;;
4895;SDS011;2463;49.948;8.472;2022-11-20T11:25:59;118.13;;;15.73;;
4895;SDS011;2463;49.948;8.472;2022-11-20T11:28:28;121.38;;;17.77;;
4895;SDS011;2463;49.948;8.472;2022-11-20T11:30:55;119.70;;;16.27;;
4895;SDS011;2463;49.948;8.472;2022-11-20T11:33:40;121.70;;;14.65;;
4895;SDS011;2463;49.948;8.472;2022-11-20T11:36:16;117.18;;;15.07;;
4895;SDS011;2463;49.948;8.472;2022-11-20T11:38:48;115.82;;;15.93;;
4895;SDS011;2463;49.948;8.472;2022-11-20T11:41:20;114.30;;;15.13;;
4895;SDS011;2463;49.948;8.472;2022-11-20T11:43:53;118.35;;;17.10;;
4895;SDS011;2463;49.948;8.472;2022-11-20T11:46:43;116.22;;;15.95;;
4895;SDS011;2463;49.948;8.472;2022-11-20T11:49:17;115.68;;;15.27;;
4895;SDS011;2463;49.948;8.472;2022-11-20T11:54:20;118.53;;;15.18;;
4895;SDS011;2463;49.948;8.472;2022-11-20T11:56:51;113.53;;;14.35;;
4895;SDS011;2463;49.948;8.472;2022-11-20T11:59:26;112.78;;;14.60;;
4895;SDS011;2463;49.948;8.472;2022-11-20T12:02:53;116.63;;;16.50;;
4895;SDS011;2463;49.948;8.472;2022-11-20T12:04:59;117.55;;;15.98;;
4895;SDS011;2463;49.948;8.472;2022-11-20T12:07:47;113.53;;;14.82;;
4895;SDS011;2463;49.948;8.472;2022-11-20T12:10:33;114.28;;;15.00;;
4895;SDS011;2463;49.948;8.472;2022-11-20T12:13:42;113.55;;;13.43;;
4895;SDS011;2463;49.948;8.472;2022-11-20T12:16:05;117.97;;;15.40;;
4895;SDS011;2463;49.948;8.472;2022-11-20T12:18:38;115.55;;;16.63;;
4895;SDS011;2463;49.948;8.472;2022-11-20T12:26:58;109.53;;;12.65;;
4895;SDS011;2463;49.948;8.472;2022-11-20T12:50:23;108.55;;;13.90;;
4895;SDS011;2463;49.948;8.472;2022-11-20T13:07:02;113.15;;;13.50;;
4895;SDS011;2463;49.948;8.472;2022-11-20T13:09:32;112.35;;;13.25;;
4895;SDS011;2463;49.948;8.472;2022-11-20T13:12:23;112.03;;;13.30;;
4895;SDS011;2463;49.948;8.472;2022-11-20T13:17:58;108.80;;;13.60;;
4895;SDS011;2463;49.948;8.472;2022-11-20T13:20:27;113.63;;;14.95;;
4895;SDS011;2463;49.948;8.472;2022-11-20T13:22:55;112.05;;;14.60;;
4895;SDS011;2463;49.948;8.472;2022-11-20T13:27:58;117.70;;;15.38;;
4895;SDS011;2463;49.948;8.472;2022-11-20T13:30:27;119.50;;;16.70;;
4895;SDS011;2463;49.948;8.472;2022-11-20T13:32:57;121.63;;;16.08;;
4895;SDS011;2463;49.948;8.472;2022-11-20T13:40:34;122.72;;;18.15;;
4895;SDS011;2463;49.948;8.472;2022-11-20T13:43:38;118.15;;;16.75;;
4895;SDS011;2463;49.948;8.472;2022-11-20T13:46:08;117.35;;;13.70;;
4895;SDS011;2463;49.948;8.472;2022-11-20T13:48:42;115.20;;;14.85;;
4895;SDS011;2463;49.948;8.472;2022-11-20T13:57:08;109.25;;;13.45;;
4895;SDS011;2463;49.948;8.472;2022-11-20T14:02:37;115.15;;;15.45;;
4895;SDS011;2463;49.948;8.472;2022-11-20T14:05:04;116.68;;;16.23;;
4895;SDS011;2463;49.948;8.472;2022-11-20T14:07:32;112.78;;;14.73;;
4895;SDS011;2463;49.948;8.472;2022-11-20T14:10:04;115.60;;;15.27;;
4895;SDS011;2463;49.948;8.472;2022-11-20T14:12:32;113.25;;;15.13;;
4895;SDS011;2463;49.948;8.472;2022-11-20T14:15:00;115.13;;;16.05;;
4895;SDS011;2463;49.948;8.472;2022-11-20T14:17:33;111.03;;;13.95;;
4895;SDS011;2463;49.948;8.472;2022-11-20T14:20:05;112.95;;;14.65;;
4895;SDS011;2463;49.948;8.472;2022-11-20T14:22:38;110.28;;;13.40;;
4895;SDS011;2463;49.948;8.472;2022-11-20T14:25:06;114.35;;;14.27;;
4895;SDS011;2463;49.948;8.472;2022-11-20T14:27:54;111.57;;;14.68;;
4895;SDS011;2463;49.948;8.472;2022-11-20T14:30:24;114.65;;;14.38;;
4895;SDS011;2463;49.948;8.472;2022-11-20T14:33:25;114.22;;;14.05;;
4895;SDS011;2463;49.948;8.472;2022-11-20T14:35:56;108.30;;;13.05;;
4895;SDS011;2463;49.948;8.472;2022-11-20T14:38:27;110.32;;;12.80;;
4895;SDS011;2463;49.948;8.472;2022-11-20T14:41:16;111.10;;;13.73;;
4895;SDS011;2463;49.948;8.472;2022-11-20T14:43:54;109.72;;;13.13;;
4895;SDS011;2463;49.948;8.472;2022-11-20T14:46:23;109.50;;;13.65;;
4895;SDS011;2463;49.948;8.472;2022-11-20T14:48:51;108.50;;;13.20;;
4895;SDS011;2463;49.948;8.472;2022-11-20T14:54:08;109.95;;;12.80;;
4895;SDS011;2463;49.948;8.472;2022-11-20T14:56:40;110.70;;;13.02;;
4895;SDS011;2463;49.948;8.472;2022-11-20T14:59:07;112.50;;;12.90;;
4895;SDS011;2463;49.948;8.472;2022-11-20T15:01:35;109.75;;;13.60;;
4895;SDS011;2463;49.948;8.472;2022-11-20T15:04:05;111.88;;;15.52;;
4895;SDS011;2463;49.948;8.472;2022-11-20T15:06:33;108.72;;;13.27;;
4895;SDS011;2463;49.948;8.472;2022-11-20T15:09:02;110.45;;;12.60;;
4895;SDS011;2463;49.948;8.472;2022-11-20T15:11:31;115.43;;;14.38;;
4895;SDS011;2463;49.948;8.472;2022-11-20T15:14:04;107.07;;;13.13;;
4895;SDS011;2463;49.948;8.472;2022-11-20T15:16:32;110.05;;;15.20;;
4895;SDS011;2463;49.948;8.472;2022-11-20T15:18:59;112.35;;;14.52;;
4895;SDS011;2463;49.948;8.472;2022-11-20T15:21:28;109.57;;;13.20;;
4895;SDS011;2463;49.948;8.472;2022-11-20T15:23:55;110.97;;;13.38;;
4895;SDS011;2463;49.948;8.472;2022-11-20T15:26:26;115.03;;;13.40;;
4895;SDS011;2463;49.948;8.472;2022-11-20T15:28:53;110.15;;;13.90;;
4895;SDS011;2463;49.948;8.472;2022-11-20T15:31:22;109.90;;;13.90;;
4895;SDS011;2463;49.948;8.472;2022-11-20T15:33:49;114.18;;;13.93;;
4895;SDS011;2463;49.948;8.472;2022-11-20T15:36:16;112.85;;;14.02;;
4895;SDS011;2463;49.948;8.472;2022-11-20T15:38:43;112.20;;;13.68;;
4895;SDS011;2463;49.948;8.472;2022-11-20T15:41:10;111.90;;;13.60;;
4895;SDS011;2463;49.948;8.472;2022-11-20T15:43:37;111.95;;;13.02;;
4895;SDS011;2463;49.948;8.472;2022-11-20T15:46:05;113.35;;;14.60;;
4895;SDS011;2463;49.948;8.472;2022-11-20T15:48:36;109.75;;;13.52;;
4895;SDS011;2463;49.948;8.472;2022-11-20T15:53:54;111.57;;;14.00;;
4895;SDS011;2463;49.948;8.472;2022-11-20T15:56:21;114.03;;;14.48;;
4895;SDS011;2463;49.948;8.472;2022-11-20T15:58:49;110.47;;;13.13;;
4895;SDS011;2463;49.948;8.472;2022-11-20T16:01:16;113.03;;;14.05;;
4895;SDS011;2463;49.948;8.472;2022-11-20T16:03:45;109.00;;;12.55;;
4895;SDS011;2463;49.948;8.472;2022-11-20T16:06:11;113.88;;;13.75;;
4895;SDS011;2463;49.948;8.472;2022-11-20T16:08:38;111.70;;;13.55;;
4895;SDS011;2463;49.948;8.472;2022-11-20T16:11:05;112.45;;;14.02;;
4895;SDS011;2463;49.948;8.472;2022-11-20T16:13:32;113.13;;;15.45;;
4895;SDS011;2463;49.948;8.472;2022-11-20T16:16:21;115.00;;;13.43;;
4895;SDS011;2463;49.948;8.472;2022-11-20T16:18:49;116.90;;;14.98;;
4895;SDS011;2463;49.948;8.472;2022-11-20T16:21:16;113.22;;;15.48;;
4895;SDS011;2463;49.948;8.472;2022-11-20T16:23:43;112.63;;;13.50;;
4895;SDS011;2463;49.948;8.472;2022-11-20T16:26:11;113.35;;;14.52;;
4895;SDS011;2463;49.948;8.472;2022-11-20T16:28:38;111.40;;;13.93;;
4895;SDS011;2463;49.948;8.472;2022-11-20T16:31:15;112.45;;;14.50;;
4895;SDS011;2463;49.948;8.472;2022-11-20T16:33:48;113.88;;;14.00;;
4895;SDS011;2463;49.948;8.472;2022-11-20T16:36:18;113.18;;;14.73;;
4895;SDS011;2463;49.948;8.472;2022-11-20T16:38:46;110.18;;;13.88;;
4895;SDS011;2463;49.948;8.472;2022-11-20T16:41:17;115.63;;;14.65;;
4895;SDS011;2463;49.948;8.472;2022-11-20T16:43:44;112.50;;;14.45;;
4895;SDS011;2463;49.948;8.472;2022-11-20T16:46:13;119.05;;;14.07;;
4895;SDS011;2463;49.948;8.472;2022-11-20T16:48:41;116.65;;;14.82;;
4895;SDS011;2463;49.948;8.472;2022-11-20T16:51:11;111.35;;;12.95;;
4895;SDS011;2463;49.948;8.472;2022-11-20T16:53:38;109.70;;;13.70;;
4895;SDS011;2463;49.948;8.472;2022-11-20T16:56:12;111.22;;;13.32;;
4895;SDS011;2463;49.948;8.472;2022-11-20T16:58:42;113.32;;;14.02;;